Skip Navigation Links Skip Navigation Links

Current Weather

John H Batten, Racine, Wis.

For information only: do not use for flight planning or navigation.
Latest weather
Observation time Friday, May 29, 2020 5:53 PM CDT
Local time Friday, May 29, 2020 6:25 PM CDT
Flight conditions Visual Meteorological Conditions
Winds
Wind direction Northwest (310°)
Wind speed 9 mph
Wind gusting to 18 mph
Visibility 10 mi.
Sky condition
Ceiling 6,000 ft. overcast
Cloud layer overcast 6,000 ft.
Temperature 64°F
Dewpoint 46°F
Altimeter 30.04 in.Hg
Derived measurements
Relative humidity 52%
Density altitude 1020 ft.
Sea-level pressure 30.04 in.Hg
Remarks
Fully automated report.
Automated weather observing station with precipitation discriminator.
METAR KRAC 292253Z AUTO 31008G16KT 10SM OVC060 18/08 A3004 RMK AO2 SLP172 T01780078

Settings

Location code

InnerDrive.Weather 4.0.6770.0 Release CLR 4.0.30319.42000
Copyright ©2018 Inner Drive Technology. All rights reserved. Portions Copyright ©1986-2018 David Braverman.

Find weather

Site navigation


Skip Navigation Links

Place info

Page info

PayPal - The safer, easier way to pay online!

Return home.

Copyright ©2020 Inner Drive Technology. Purveyors of fine, hand-crafted computer software. Page printed 2020-05-29T23:25:49 UTC.